KFSE

Fosston Municipal Airport

Fosston, Minnesota, USA
METAR KFSE 220035Z AUTO 20006KT 10SM CLR M19/M23 A3051 RMK AO2
Observed Flight Rules
Feb-22 @ 00:35 UTC (4 hours ago) Visual Flight Rules
Wind Visibility Clouds
200° at 6 knots 10 miles
  • Clear skies
Temperatures Readings
Current -19°C / -2°F
Dewpoint -23°C / -9°F
Humidity 71%
Altimeter 30.51" Hg
Pressure 1033 hPa
Elevation 389
METAR KFSE 220035Z AUTO 20006KT 10SM CLR M19/M23 A3051 RMK AO2
Observed Flight Rules
Feb-22 @ 00:35 UTC
(4 hours ago)
VFR
Wind Visibility
200° at 6 knots 10 miles
Clouds
  • Clear skies
Temperature Dewpoint
-19°C / -2°F -23°C / -9°F
Humidity Altimeter Pressure
71% 30.51" Hg 1033 hPa